Time;durP1;ratioP1;P1;durP2;ratioP2;P2;SDS_P1;SDS_P2;PMS_P1;PMS_P2;Temp;Humidity;BMP_temperature;BMP_pressure;BME280_temperature;BME280_humidity;BME280_pressure;Samples;Min_cycle;Max_cycle;Signal;HPM_P1;HPM_P2
2023/10/01 00:01:33;;;;;;;5.20;2.50;;;10.30;99.90;;;;;;5033781;28;20209;-79
2023/10/01 00:03:58;;;;;;;4.50;1.83;;;10.30;99.90;;;;;;5033592;28;20175;-79
2023/10/01 00:06:25;;;;;;;2.97;1.97;;;10.30;99.90;;;;;;5033530;28;20195;-79
2023/10/01 00:08:50;;;;;;;2.63;1.83;;;10.30;99.90;;;;;;5033557;28;20184;-79
2023/10/01 00:11:16;;;;;;;2.30;1.77;;;10.20;19.00;;;;;;5016059;28;20546;-79
2023/10/01 00:13:42;;;;;;;2.60;1.77;;;10.00;93.50;;;;;;5033524;28;20171;-79
2023/10/01 00:16:07;;;;;;;3.13;1.83;;;9.90;99.90;;;;;;5033553;28;20182;-79
2023/10/01 00:18:35;;;;;;;3.97;2.40;;;9.80;99.90;;;;;;5033669;28;20174;-79
2023/10/01 00:21:02;;;;;;;2.87;2.00;;;9.80;99.90;;;;;;5033162;28;20228;-79
2023/10/01 00:23:28;;;;;;;3.17;2.10;;;9.80;99.90;;;;;;5033022;28;20209;-79
2023/10/01 00:25:53;;;;;;;2.67;2.10;;;9.80;99.90;;;;;;5015593;28;20578;-79
2023/10/01 00:28:19;;;;;;;2.80;1.80;;;9.90;99.90;;;;;;5016070;28;20179;-79
2023/10/01 00:30:45;;;;;;;2.50;1.80;;;10.00;99.90;;;;;;5033165;28;20255;-79
2023/10/01 00:33:11;;;;;;;3.40;2.10;;;10.10;44.70;;;;;;5015828;28;20182;-79
2023/10/01 00:35:40;;;;;;;3.60;2.00;;;10.10;99.90;;;;;;5033390;28;20212;-79
2023/10/01 00:38:10;;;;;;;3.37;1.90;;;10.00;99.90;;;;;;5015461;28;20202;-79
2023/10/01 00:40:36;;;;;;;3.53;2.20;;;10.10;99.90;;;;;;5015092;28;20184;-79
2023/10/01 00:43:06;;;;;;;3.70;2.00;;;10.10;99.90;;;;;;5015745;28;20170;-79
2023/10/01 00:45:31;;;;;;;4.37;2.00;;;10.10;99.90;;;;;;5015918;28;20201;-79
2023/10/01 00:48:05;;;;;;;3.73;2.30;;;10.10;99.90;;;;;;5033296;28;20193;-79
2023/10/01 00:50:32;;;;;;;2.30;2.00;;;10.00;99.90;;;;;;5032958;28;20178;-79
2023/10/01 00:52:58;;;;;;;4.27;2.27;;;10.10;99.90;;;;;;5015655;28;20174;-79
2023/10/01 00:55:24;;;;;;;4.57;2.20;;;10.20;99.90;;;;;;5033376;28;20278;-79
2023/10/01 00:57:53;;;;;;;3.37;2.00;;;10.20;84.30;;;;;;5015590;28;20291;-79
2023/10/01 01:00:19;;;;;;;5.13;2.40;;;10.10;70.80;;;;;;5015297;28;20170;-80
2023/10/01 01:02:57;;;;;;;5.30;2.73;;;10.00;71.60;;;;;;5032768;28;20180;-80
2023/10/01 01:05:34;;;;;;;3.27;2.43;;;10.00;99.90;;;;;;5015450;28;20195;-79
2023/10/01 01:08:10;;;;;;;4.17;2.40;;;10.00;78.30;;;;;;5036885;28;20176;-79
2023/10/01 01:10:42;;;;;;;3.50;2.30;;;9.80;96.80;;;;;;5036731;28;20177;-79
2023/10/01 01:13:08;;;;;;;2.60;1.70;;;9.80;99.90;;;;;;5019162;28;20182;-79
2023/10/01 01:15:35;;;;;;;3.33;1.87;;;9.80;99.90;;;;;;5019030;28;20202;-79
2023/10/01 01:18:07;;;;;;;2.83;1.80;;;9.70;16.80;;;;;;5036605;28;20186;-79
2023/10/01 01:20:36;;;;;;;2.90;1.90;;;9.70;99.90;;;;;;5036426;28;20174;-79
2023/10/01 01:23:04;;;;;;;3.47;2.20;;;9.70;99.90;;;;;;5036846;28;20228;-79
2023/10/01 01:25:32;;;;;;;3.43;2.10;;;9.60;62.90;;;;;;5036353;28;20190;-79
2023/10/01 01:27:58;;;;;;;2.27;1.93;;;9.50;23.00;;;;;;5018819;28;20181;-79
2023/10/01 01:30:29;;;;;;;2.93;1.90;;;9.40;56.20;;;;;;5036448;28;20175;-78
2023/10/01 01:32:57;;;;;;;2.10;1.77;;;9.50;92.20;;;;;;5036152;28;20171;-79
2023/10/01 01:35:29;;;;;;;2.87;1.90;;;9.40;73.60;;;;;;5018961;28;20574;-79
2023/10/01 01:37:58;;;;;;;2.70;2.10;;;9.50;99.90;;;;;;5036320;28;20177;-79
2023/10/01 01:40:27;;;;;;;4.93;2.00;;;9.60;99.90;;;;;;5018143;28;20562;-78
2023/10/01 01:43:04;;;;;;;7.00;2.57;;;9.60;99.90;;;;;;5018446;28;20256;-79
2023/10/01 01:45:38;;;;;;;2.87;2.00;;;9.60;99.90;;;;;;5018430;28;20205;-79
2023/10/01 01:48:21;;;;;;;2.80;1.97;;;9.60;99.90;;;;;;5018334;28;20175;-79
2023/10/01 01:50:47;;;;;;;2.60;2.17;;;9.60;99.90;;;;;;5018090;28;20231;-79
2023/10/01 01:53:13;;;;;;;6.70;2.43;;;9.60;99.90;;;;;;5036157;28;20178;-79
2023/10/01 01:55:42;;;;;;;2.17;1.97;;;9.50;66.60;;;;;;5035970;28;20777;-79
2023/10/01 01:58:10;;;;;;;2.50;1.83;;;9.40;99.90;;;;;;5035885;28;20551;-79
2023/10/01 02:01:01;;;;;;;3.53;2.20;;;9.40;97.90;;;;;;5035888;28;20563;-79
2023/10/01 02:03:25;;;;;;;2.80;2.10;;;9.50;99.90;;;;;;5035946;28;20167;-79
2023/10/01 02:05:52;;;;;;;3.87;2.20;;;9.40;99.90;;;;;;5018156;28;20210;-79
2023/10/01 02:08:24;;;;;;;2.20;1.87;;;9.60;99.90;;;;;;5018175;28;20194;-79
2023/10/01 02:10:50;;;;;;;3.13;1.90;;;9.60;91.40;;;;;;5017732;28;20174;-79
2023/10/01 02:13:19;;;;;;;4.20;2.17;;;9.80;24.40;;;;;;5035634;28;20174;-79
2023/10/01 02:15:47;;;;;;;3.50;2.00;;;9.70;73.10;;;;;;5017982;28;20194;-79
2023/10/01 02:18:17;;;;;;;3.87;2.23;;;9.70;88.00;;;;;;5035239;28;20178;-79
2023/10/01 02:20:52;;;;;;;4.90;2.03;;;9.70;95.40;;;;;;5017562;28;20561;-79
2023/10/01 02:23:32;;;;;;;3.93;2.00;;;9.50;99.90;;;;;;5035641;28;20170;-79
2023/10/01 02:26:00;;;;;;;4.07;2.00;;;9.40;99.90;;;;;;5017888;28;20202;-79
2023/10/01 02:28:32;;;;;;;4.20;2.33;;;9.50;99.90;;;;;;5035188;28;20190;-79
2023/10/01 02:31:00;;;;;;;3.37;1.90;;;9.60;99.90;;;;;;5035342;28;20548;-79
2023/10/01 02:33:55;;;;;;;5.07;2.00;;;9.60;60.50;;;;;;5017871;28;20209;-79
2023/10/01 02:36:12;;;;;;;3.07;1.80;;;9.50;55.50;;;;;;5035081;28;20182;-79
2023/10/01 02:38:45;;;;;;;3.40;2.00;;;9.40;94.30;;;;;;5017396;28;20189;-79
2023/10/01 02:41:15;;;;;;;2.57;1.90;;;9.30;53.70;;;;;;5034922;28;20293;-79
2023/10/01 02:43:41;;;;;;;2.70;1.87;;;9.30;53.20;;;;;;5035123;28;20285;-79
2023/10/01 02:46:11;;;;;;;2.43;1.80;;;9.20;99.90;;;;;;5017729;28;20594;-79
2023/10/01 02:48:40;;;;;;;3.87;2.00;;;9.10;99.90;;;;;;5034889;28;20564;-79
2023/10/01 02:51:15;;;;;;;2.17;1.97;;;9.10;99.90;;;;;;5034625;28;20185;-79
2023/10/01 02:57:11;;;;;;;2.23;1.67;;;9.10;99.90;;;;;;4954756;28;20184;-79
2023/10/01 03:02:25;;;;;;;2.97;1.80;;;9.10;99.90;;;;;;5034446;28;20690;-79
2023/10/01 03:04:51;;;;;;;3.50;1.73;;;9.30;99.90;;;;;;5016969;28;20198;-79
2023/10/01 03:07:17;;;;;;;2.30;1.90;;;9.40;99.90;;;;;;5034268;28;20177;-79
2023/10/01 03:09:43;;;;;;;2.17;1.93;;;9.40;99.90;;;;;;5016581;28;20174;-79
2023/10/01 03:12:36;;;;;;;2.80;1.90;;;9.30;99.90;;;;;;5016493;28;20190;-79
2023/10/01 03:17:39;;;;;;;2.77;1.80;;;9.40;99.90;;;;;;5034778;28;20176;-79
2023/10/01 03:20:58;;;;;;;3.57;2.23;;;9.30;1.00;;;;;;5034448;28;20249;-79
2023/10/01 03:23:11;;;;;;;2.63;2.10;;;9.20;26.60;;;;;;5033952;28;20206;-79
2023/10/01 03:25:42;;;;;;;2.27;2.00;;;9.10;24.00;;;;;;5034350;28;20195;-79
2023/10/01 03:28:14;;;;;;;3.27;2.30;;;9.00;12.90;;;;;;5034063;28;20182;-79
2023/10/01 03:30:45;;;;;;;3.97;2.10;;;9.00;50.20;;;;;;5016403;28;20180;-79
2023/10/01 03:33:15;;;;;;;2.13;1.90;;;9.00;34.20;;;;;;5034455;28;20261;-79
2023/10/01 03:35:47;;;;;;;3.83;2.13;;;8.90;56.20;;;;;;5016363;28;20202;-79
2023/10/01 03:38:16;;;;;;;2.50;1.90;;;8.80;1.00;;;;;;5034390;28;20201;-79
2023/10/01 03:41:00;;;;;;;2.50;2.07;;;8.80;52.80;;;;;;5016167;28;20183;-79
2023/10/01 03:43:32;;;;;;;4.47;1.90;;;8.80;97.00;;;;;;5034240;28;20170;-79
2023/10/01 03:46:26;;;;;;;2.93;2.00;;;8.80;99.90;;;;;;5033751;28;20229;-79
2023/10/01 03:48:59;;;;;;;3.27;1.90;;;8.80;99.90;;;;;;5033798;28;20712;-80
2023/10/01 03:51:52;;;;;;;2.60;1.80;;;8.80;99.90;;;;;;5034112;28;20201;-79
2023/10/01 03:54:19;;;;;;;3.67;1.70;;;8.80;99.90;;;;;;5033741;28;20198;-79
2023/10/01 03:56:47;;;;;;;5.30;1.70;;;8.70;99.90;;;;;;5033463;28;20174;-79
2023/10/01 03:59:16;;;;;;;2.90;1.70;;;8.80;99.90;;;;;;5034130;28;20730;-79
2023/10/01 04:02:02;;;;;;;2.10;1.73;;;8.70;99.90;;;;;;5033374;28;20202;-79
2023/10/01 04:04:32;;;;;;;2.80;1.70;;;8.80;99.90;;;;;;5016020;28;20194;-80
2023/10/01 04:07:11;;;;;;;2.70;1.83;;;8.90;99.90;;;;;;5016411;28;20220;-79
2023/10/01 04:09:46;;;;;;;3.37;1.70;;;8.90;67.60;;;;;;5033834;28;20176;-79
2023/10/01 04:12:19;;;;;;;3.87;1.87;;;8.80;99.90;;;;;;5015847;28;20181;-79
2023/10/01 04:14:48;;;;;;;2.20;1.80;;;8.90;99.90;;;;;;5015783;28;20198;-79
2023/10/01 04:17:17;;;;;;;2.37;1.77;;;8.90;99.90;;;;;;5033774;28;20178;-79
2023/10/01 04:19:44;;;;;;;2.57;1.90;;;8.90;99.90;;;;;;5033166;28;20182;-79
2023/10/01 04:22:10;;;;;;;3.00;1.83;;;8.90;99.90;;;;;;5033442;28;20212;-79
2023/10/01 04:24:36;;;;;;;2.47;1.80;;;8.90;92.30;;;;;;5015879;28;20277;-79
2023/10/01 04:27:18;;;;;;;2.43;2.03;;;8.90;99.90;;;;;;5015660;28;20170;-79
2023/10/01 04:29:57;;;;;;;3.07;1.63;;;8.80;99.90;;;;;;5033783;28;20166;-79
2023/10/01 04:32:27;;;;;;;3.07;2.00;;;8.80;99.90;;;;;;5015754;28;20207;-79
2023/10/01 04:34:59;;;;;;;4.37;2.20;;;8.80;99.90;;;;;;5015751;28;20251;-79
2023/10/01 04:37:37;;;;;;;2.83;2.10;;;8.70;99.90;;;;;;5015805;28;20226;-79
2023/10/01 04:40:06;;;;;;;3.30;1.90;;;8.80;99.90;;;;;;5016845;28;20173;-79
2023/10/01 04:42:37;;;;;;;2.97;1.83;;;8.80;99.90;;;;;;5036933;28;20210;-79
2023/10/01 04:45:22;;;;;;;3.27;1.90;;;8.60;99.90;;;;;;5019742;28;20271;-79
2023/10/01 04:47:55;;;;;;;2.97;1.70;;;8.60;99.90;;;;;;5019790;28;20174;-79
2023/10/01 04:50:29;;;;;;;4.00;2.03;;;8.60;99.90;;;;;;5019468;28;20672;-79
2023/10/01 04:52:58;;;;;;;3.00;2.00;;;8.70;99.90;;;;;;5037008;28;20170;-79
2023/10/01 04:55:26;;;;;;;3.07;2.00;;;8.70;99.90;;;;;;5019448;28;20283;-79
2023/10/01 04:57:51;;;;;;;2.87;2.10;;;8.80;99.90;;;;;;5019229;28;20277;-79
2023/10/01 05:00:21;;;;;;;3.37;2.30;;;8.70;99.90;;;;;;5036850;28;20204;-79
2023/10/01 05:02:49;;;;;;;3.63;2.07;;;8.80;99.90;;;;;;5036721;28;20672;-79
2023/10/01 05:05:25;;;;;;;3.03;1.87;;;8.80;99.90;;;;;;5036708;28;20201;-79
2023/10/01 05:07:57;;;;;;;2.77;2.10;;;8.80;99.90;;;;;;5037017;28;20193;-79
2023/10/01 05:10:26;;;;;;;6.13;2.20;;;8.80;99.90;;;;;;5019432;28;20175;-80
2023/10/01 05:12:58;;;;;;;3.73;2.00;;;8.70;99.90;;;;;;5037660;28;20187;-81
2023/10/01 05:15:31;;;;;;;4.77;2.00;;;8.60;99.90;;;;;;5037490;28;20850;-80
2023/10/01 05:17:58;;;;;;;3.40;2.30;;;8.60;99.90;;;;;;5037696;28;20237;-80
2023/10/01 05:20:25;;;;;;;3.47;2.30;;;8.60;99.90;;;;;;5037288;28;20189;-81
2023/10/01 05:22:54;;;;;;;3.20;1.90;;;8.70;99.90;;;;;;5037522;28;20208;-80
2023/10/01 05:25:26;;;;;;;4.70;2.47;;;8.70;99.90;;;;;;5037391;28;20245;-80
2023/10/01 05:27:58;;;;;;;4.27;2.27;;;8.80;99.90;;;;;;5020418;28;20217;-80
2023/10/01 05:30:39;;;;;;;4.70;2.40;;;8.70;99.90;;;;;;5037715;28;20261;-80
2023/10/01 05:33:06;;;;;;;3.63;2.20;;;8.80;99.90;;;;;;5036910;28;20162;-80
2023/10/01 05:35:38;;;;;;;3.33;2.23;;;8.70;99.90;;;;;;5036409;28;20577;-80
2023/10/01 05:38:04;;;;;;;4.50;2.40;;;8.80;99.90;;;;;;5018961;28;20284;-81
2023/10/01 05:40:34;;;;;;;4.70;2.23;;;8.80;99.90;;;;;;5018429;28;20257;-82
2023/10/01 05:43:12;;;;;;;3.93;2.37;;;8.80;99.90;;;;;;5019566;28;20189;-83
2023/10/01 05:45:39;;;;;;;2.83;2.30;;;8.80;99.90;;;;;;5019384;28;20566;-80
2023/10/01 05:48:10;;;;;;;2.30;1.80;;;8.80;99.90;;;;;;5036515;28;20163;-81
2023/10/01 05:50:38;;;;;;;2.90;2.40;;;8.70;99.90;;;;;;5035588;28;20179;-82
2023/10/01 05:53:04;;;;;;;3.57;2.37;;;8.70;99.90;;;;;;5034523;28;20650;-82
2023/10/01 05:55:30;;;;;;;4.87;2.20;;;8.80;99.90;;;;;;5017588;28;20244;-81
2023/10/01 05:58:12;;;;;;;4.17;2.40;;;8.90;99.90;;;;;;5035526;28;20225;-82
2023/10/01 06:00:45;;;;;;;4.07;2.37;;;9.00;99.90;;;;;;5017584;28;20171;-77
2023/10/01 06:03:18;;;;;;;2.50;2.30;;;9.00;99.90;;;;;;5017859;28;20166;-81
2023/10/01 06:05:49;;;;;;;3.60;2.53;;;9.00;99.90;;;;;;5035089;28;20268;-81
2023/10/01 06:08:17;;;;;;;3.33;2.50;;;9.00;99.90;;;;;;5017431;28;20170;-81
2023/10/01 06:10:59;;;;;;;3.13;2.27;;;9.00;99.90;;;;;;5017194;28;20181;-81
2023/10/01 06:13:28;;;;;;;2.40;1.80;;;9.00;99.90;;;;;;5017126;28;20176;-79
2023/10/01 06:15:58;;;;;;;3.20;1.90;;;9.00;99.90;;;;;;5017234;28;20193;-79
2023/10/01 06:18:25;;;;;;;2.73;2.13;;;9.00;99.90;;;;;;5035054;28;20224;-79
2023/10/01 06:20:51;;;;;;;2.83;2.37;;;9.00;99.90;;;;;;5034440;28;20658;-82
2023/10/01 06:23:17;;;;;;;3.77;2.03;;;9.00;99.90;;;;;;5016488;28;20175;-83
2023/10/01 06:25:47;;;;;;;3.53;2.20;;;9.10;99.90;;;;;;5034270;28;20197;-82
2023/10/01 06:28:20;;;;;;;3.60;2.40;;;9.10;99.90;;;;;;5034251;28;20185;-82
2023/10/01 06:30:46;;;;;;;3.30;2.40;;;9.30;99.90;;;;;;5034103;28;20572;-80
2023/10/01 06:33:29;;;;;;;3.20;2.60;;;9.40;99.90;;;;;;5035208;28;20328;-81
2023/10/01 06:38:41;;;;;;;5.47;2.80;;;9.70;99.90;;;;;;5035372;28;20228;-83
2023/10/01 06:41:13;;;;;;;3.50;2.57;;;9.80;99.90;;;;;;5034547;28;20335;-81
2023/10/01 06:43:48;;;;;;;5.30;3.00;;;9.80;99.90;;;;;;5034839;28;20182;-82
2023/10/01 06:46:19;;;;;;;5.13;3.07;;;9.80;99.90;;;;;;5094923;23;20584;-85
2023/10/01 06:48:47;;;;;;;4.83;3.13;;;9.90;99.90;;;;;;5053078;28;20326;-83
2023/10/01 06:51:14;;;;;;;5.87;2.77;;;10.00;99.90;;;;;;5054102;28;20185;-84
2023/10/01 06:53:47;;;;;;;4.33;3.03;;;10.10;99.90;;;;;;5043942;28;20182;-85
2023/10/01 06:56:17;;;;;;;5.03;2.93;;;10.10;99.90;;;;;;5018006;28;20191;-84
2023/10/01 06:59:12;;;;;;;4.47;2.63;;;10.20;99.90;;;;;;5016121;28;20232;-84
2023/10/01 07:01:35;;;;;;;8.00;3.43;;;10.20;99.90;;;;;;5034660;28;20210;-84
2023/10/01 07:04:05;;;;;;;4.23;3.03;;;10.30;99.90;;;;;;5032806;28;20173;-87
2023/10/01 07:06:36;;;;;;;5.10;3.03;;;10.40;99.90;;;;;;5033812;28;20198;-86
2023/10/01 07:09:04;;;;;;;6.10;3.37;;;10.60;99.90;;;;;;5026379;28;20167;-85
2023/10/01 07:11:31;;;;;;;5.40;3.17;;;10.70;99.90;;;;;;5032600;28;20186;-87
2023/10/01 07:13:58;;;;;;;5.40;3.57;;;10.80;99.90;;;;;;5031924;28;20185;-87
2023/10/01 07:16:36;;;;;;;4.60;3.60;;;10.90;99.90;;;;;;5031595;28;20205;-86
2023/10/01 07:19:05;;;;;;;5.40;3.60;;;10.90;99.90;;;;;;5033304;28;20248;-82
2023/10/01 07:21:34;;;;;;;7.07;3.50;;;11.00;99.90;;;;;;5032332;28;20200;-83
2023/10/01 07:24:01;;;;;;;6.60;3.43;;;11.10;99.90;;;;;;5026043;28;20238;-84
2023/10/01 07:26:28;;;;;;;4.87;3.00;;;11.20;99.90;;;;;;5034692;28;20201;-83
2023/10/01 07:28:59;;;;;;;6.60;3.00;;;11.30;99.90;;;;;;5033412;28;20175;-83
2023/10/01 07:31:26;;;;;;;5.20;2.93;;;11.40;99.90;;;;;;5034333;28;20172;-86
2023/10/01 07:33:55;;;;;;;5.20;3.10;;;11.40;99.90;;;;;;5034290;28;20201;-84
2023/10/01 07:36:23;;;;;;;4.80;3.30;;;11.60;99.90;;;;;;5033336;28;20197;-84
2023/10/01 07:38:52;;;;;;;4.97;3.30;;;11.60;99.90;;;;;;5026364;28;20178;-83
2023/10/01 07:41:20;;;;;;;5.20;3.43;;;11.80;99.90;;;;;;5038054;28;20567;-83
2023/10/01 07:43:46;;;;;;;4.53;3.17;;;11.80;99.90;;;;;;5035041;28;20208;-84
2023/10/01 07:46:15;;;;;;;5.80;3.47;;;11.90;99.90;;;;;;5036245;28;20209;-88
2023/10/01 07:48:47;;;;;;;4.97;3.27;;;12.00;99.90;;;;;;5035920;28;20253;-86
2023/10/01 07:51:35;;;;;;;6.67;3.83;;;12.20;99.90;;;;;;5036790;28;20228;-85
2023/10/01 07:54:02;;;;;;;6.13;4.13;;;12.40;99.90;;;;;;5030219;28;20610;-85
2023/10/01 07:56:28;;;;;;;6.70;4.40;;;12.60;99.90;;;;;;5013983;28;20298;-85
2023/10/01 07:59:12;;;;;;;10.03;5.70;;;12.90;99.90;;;;;;5025701;28;20193;-84
2023/10/01 08:01:42;;;;;;;9.63;6.23;;;13.20;99.90;;;;;;5027275;28;20209;-83
2023/10/01 08:04:38;;;;;;;10.77;6.27;;;13.50;99.90;;;;;;5021561;28;20253;-83
2023/10/01 08:06:56;;;;;;;11.00;6.77;;;13.80;99.90;;;;;;5036217;28;20174;-83
2023/10/01 08:09:22;;;;;;;12.53;7.07;;;14.10;99.90;;;;;;5034351;28;20181;-83
2023/10/01 08:12:06;;;;;;;12.10;7.30;;;14.40;99.90;;;;;;5034592;28;20252;-83
2023/10/01 08:14:35;;;;;;;9.90;6.73;;;14.60;1.00;;;;;;5050986;28;20272;-83
2023/10/01 08:17:03;;;;;;;10.93;7.00;;;14.70;1.00;;;;;;5035448;28;20178;-84
2023/10/01 08:19:43;;;;;;;10.83;6.87;;;14.80;1.00;;;;;;5038006;28;20617;-86
2023/10/01 08:22:22;;;;;;;11.50;6.83;;;14.90;1.00;;;;;;5034033;28;20194;-85
2023/10/01 08:24:49;;;;;;;10.00;7.33;;;15.10;1.00;;;;;;5034571;28;20220;-85
2023/10/01 08:27:29;;;;;;;13.17;7.30;;;15.20;1.00;;;;;;5034393;28;20202;-85
2023/10/01 08:29:59;;;;;;;13.23;6.90;;;15.30;1.00;;;;;;5033177;28;20170;-85
2023/10/01 08:32:37;;;;;;;10.63;7.37;;;15.50;1.00;;;;;;5031440;28;20178;-86
2023/10/01 08:35:05;;;;;;;11.80;7.20;;;15.60;1.00;;;;;;5032268;28;20194;-86
2023/10/01 08:37:31;;;;;;;10.17;6.53;;;15.80;99.90;;;;;;5032306;28;20175;-85
2023/10/01 08:40:00;;;;;;;11.00;7.23;;;16.00;99.90;;;;;;5030873;28;20229;-88
2023/10/01 08:42:29;;;;;;;10.80;6.90;;;16.10;1.00;;;;;;5032218;28;20208;-87
2023/10/01 08:45:06;;;;;;;10.60;6.73;;;16.20;1.00;;;;;;5047501;28;20255;-86
2023/10/01 08:47:34;;;;;;;11.43;7.40;;;16.30;1.00;;;;;;5032167;28;20174;-88
2023/10/01 08:52:57;;;;;;;9.87;5.97;;;16.50;99.90;;;;;;5034822;28;20598;-84
2023/10/01 08:55:35;;;;;;;11.00;6.00;;;16.60;99.90;;;;;;5034202;28;20658;-85
2023/10/01 08:58:25;;;;;;;8.77;5.67;;;16.80;1.00;;;;;;5032494;28;20243;-85
2023/10/01 09:01:14;;;;;;;11.23;6.20;;;16.80;1.00;;;;;;5032727;28;20174;-83
2023/10/01 09:03:47;;;;;;;9.43;5.57;;;16.90;99.90;;;;;;5032074;28;20167;-83
2023/10/01 09:06:28;;;;;;;9.03;5.60;;;17.10;1.00;;;;;;5032592;28;20186;-83
2023/10/01 09:08:59;;;;;;;11.30;5.80;;;17.30;99.90;;;;;;5033539;28;20175;-83
2023/10/01 09:11:42;;;;;;;9.03;5.40;;;17.40;99.90;;;;;;5033544;28;20169;-82
2023/10/01 09:14:25;;;;;;;8.43;5.20;;;17.50;99.90;;;;;;5032191;28;20261;-83
2023/10/01 09:16:57;;;;;;;9.10;5.50;;;17.70;1.00;;;;;;5032038;28;20181;-83
2023/10/01 09:19:31;;;;;;;9.57;5.53;;;17.80;1.00;;;;;;5033470;28;20175;-83
2023/10/01 09:22:07;;;;;;;8.70;5.00;;;18.00;99.90;;;;;;5032152;28;20205;-83
2023/10/01 09:24:41;;;;;;;7.97;4.80;;;18.00;1.00;;;;;;5033439;28;20196;-83
2023/10/01 09:27:18;;;;;;;9.27;5.80;;;18.20;99.90;;;;;;5034942;28;20170;-83
2023/10/01 09:29:45;;;;;;;9.07;5.70;;;18.40;1.00;;;;;;5036309;28;20244;-83
2023/10/01 09:32:13;;;;;;;9.63;5.77;;;18.30;1.00;;;;;;5037613;28;20177;-85
2023/10/01 09:37:52;;;;;;;8.83;5.13;;;18.40;1.00;;;;;;5033377;28;20233;-83
2023/10/01 09:42:58;;;;;;;8.63;4.87;;;18.60;1.00;;;;;;5037940;28;20301;-83
2023/10/01 09:45:34;;;;;;;7.07;5.20;;;18.70;99.90;;;;;;5038141;28;20225;-83
2023/10/01 09:48:09;;;;;;;8.70;5.00;;;18.70;63.90;;;;;;5038930;28;20170;-84
2023/10/01 09:50:39;;;;;;;7.57;4.60;;;18.90;1.00;;;;;;5038506;28;20170;-83
2023/10/01 09:53:12;;;;;;;9.87;5.30;;;18.90;99.90;;;;;;5036642;28;20195;-86
2023/10/01 09:55:47;;;;;;;8.77;4.57;;;19.00;99.90;;;;;;5036342;28;20200;-85
2023/10/01 09:58:28;;;;;;;8.17;4.60;;;19.10;1.00;;;;;;5037860;28;20181;-83
2023/10/01 10:01:01;;;;;;;7.83;4.80;;;19.10;99.90;;;;;;5035845;28;20178;-83
2023/10/01 10:03:39;;;;;;;8.67;4.60;;;19.20;10.90;;;;;;5037513;28;20220;-84
2023/10/01 10:06:09;;;;;;;8.00;4.35;;;19.20;99.90;;;;;;5037851;28;20198;-84
2023/10/01 10:08:36;;;;;;;10.23;5.30;;;19.40;1.00;;;;;;5037101;28;20170;-82
2023/10/01 10:11:06;;;;;;;9.02;4.80;;;19.50;99.90;;;;;;5037901;28;20174;-83
2023/10/01 10:13:45;;;;;;;9.13;5.30;;;19.60;1.00;;;;;;5038370;28;20178;-83
2023/10/01 10:16:32;;;;;;;7.65;4.93;;;19.40;1.00;;;;;;5036947;28;20203;-85
2023/10/01 10:19:12;;;;;;;8.15;5.05;;;19.40;1.00;;;;;;5036311;28;20201;-84
2023/10/01 10:24:37;;;;;;;9.80;5.18;;;19.50;1.00;;;;;;5037113;28;20193;-84
2023/10/01 10:27:09;;;;;;;8.05;4.97;;;19.50;1.00;;;;;;5051306;28;20178;-83
2023/10/01 10:29:46;;;;;;;9.25;4.85;;;19.60;1.00;;;;;;5033981;28;20268;-86
2023/10/01 10:32:16;;;;;;;9.80;4.97;;;19.70;1.00;;;;;;5051536;28;20209;-84
2023/10/01 10:35:17;;;;;;;7.35;4.80;;;20.10;1.00;;;;;;5034632;28;20194;-84
2023/10/01 10:37:55;;;;;;;8.95;4.63;;;20.10;99.90;;;;;;5032789;28;20186;-83
2023/10/01 10:40:22;;;;;;;7.68;4.95;;;19.80;99.90;;;;;;5035588;28;20276;-82
2023/10/01 10:42:58;;;;;;;9.05;4.82;;;20.00;1.00;;;;;;5035913;28;20292;-83
2023/10/01 10:45:42;;;;;;;8.38;5.03;;;20.00;99.90;;;;;;5037725;28;20202;-85
2023/10/01 10:48:14;;;;;;;8.45;4.97;;;20.00;99.90;;;;;;5035976;28;20175;-84
2023/10/01 10:50:48;;;;;;;7.15;4.95;;;20.20;99.90;;;;;;5036189;28;20234;-81
2023/10/01 10:53:20;;;;;;;;;;;;;;;;;;;;;
2023/10/01 10:56:07;;;;;;;9.82;5.20;;;20.30;99.90;;;;;;5035366;28;20281;-83
2023/10/01 10:58:45;;;;;;;7.70;4.70;;;20.10;99.90;;;;;;5050565;28;20175;-83
2023/10/01 11:03:54;;;;;;;8.13;4.30;;;20.40;99.90;;;;;;5035493;28;20308;-83
2023/10/01 11:06:20;;;;;;;7.75;4.70;;;20.30;99.90;;;;;;5033591;28;20244;-84
2023/10/01 11:08:50;;;;;;;9.23;4.63;;;20.40;1.00;;;;;;5034995;28;20257;-84
2023/10/01 11:11:43;;;;;;;8.57;4.90;;;20.60;99.90;;;;;;5034610;28;20179;-84
2023/10/01 11:14:18;;;;;;;8.45;4.82;;;20.80;1.00;;;;;;5034446;28;20178;-83
2023/10/01 11:16:49;;;;;;;8.40;4.90;;;20.60;1.00;;;;;;5035263;28;20178;-84
2023/10/01 11:19:16;;;;;;;8.05;5.20;;;20.60;1.00;;;;;;5034975;28;20189;-84
2023/10/01 11:21:58;;;;;;;8.73;4.82;;;20.80;1.00;;;;;;5033816;28;20213;-84
2023/10/01 11:24:26;;;;;;;8.55;5.07;;;20.80;99.90;;;;;;5033816;28;20204;-83
2023/10/01 11:27:11;;;;;;;7.18;4.38;;;20.70;99.90;;;;;;5034844;28;20174;-84
2023/10/01 11:29:59;;;;;;;9.07;5.10;;;20.70;1.00;;;;;;5034781;28;20178;-84
2023/10/01 11:35:36;;;;;;;8.55;4.90;;;21.10;99.90;;;;;;5034235;28;20755;-83
2023/10/01 11:38:08;;;;;;;9.00;5.32;;;21.30;99.90;;;;;;5034097;28;20179;-83
2023/10/01 11:43:32;;;;;;;9.00;5.13;;;21.10;99.90;;;;;;5034174;28;20672;-85
2023/10/01 11:46:23;;;;;;;10.57;5.00;;;21.10;99.90;;;;;;5034045;28;20261;-85
2023/10/01 11:49:02;;;;;;;8.13;4.72;;;21.60;99.90;;;;;;5034731;28;20241;-87
2023/10/01 11:51:44;;;;;;;;;;;;;;;;;;;;;
2023/10/01 11:54:11;;;;;;;8.20;4.85;;;22.00;99.90;;;;;;5037231;28;20182;-85
2023/10/01 11:57:07;;;;;;;8.23;4.88;;;21.90;99.90;;;;;;5035606;28;20174;-86
2023/10/01 11:59:36;;;;;;;10.45;5.30;;;21.90;1.00;;;;;;5037469;28;20213;-86
2023/10/01 12:04:59;;;;;;;8.63;4.85;;;22.00;1.00;;;;;;5037633;28;20279;-84
2023/10/01 12:07:32;;;;;;;8.90;5.10;;;22.00;21.70;;;;;;5036081;28;20185;-85
2023/10/01 12:09:59;;;;;;;9.27;5.18;;;22.40;1.00;;;;;;5036420;28;20171;-85
2023/10/01 12:12:27;;;;;;;8.18;5.18;;;22.80;1.00;;;;;;5035955;28;20699;-84
2023/10/01 12:15:33;;;;;;;8.82;5.07;;;22.80;1.00;;;;;;5037806;28;20209;-87
2023/10/01 12:17:46;;;;;;;9.40;5.03;;;22.90;1.00;;;;;;5037917;28;20193;-85
2023/10/01 12:23:10;;;;;;;9.77;5.28;;;22.60;1.00;;;;;;5015353;28;20301;-85
2023/10/01 12:25:50;;;;;;;9.10;5.30;;;22.70;1.00;;;;;;5037958;28;20213;-85
2023/10/01 12:28:24;;;;;;;10.38;5.32;;;22.60;1.00;;;;;;5035831;28;20667;-86
2023/10/01 12:31:09;;;;;;;7.47;5.10;;;22.50;1.00;;;;;;5037560;28;20185;-84
2023/10/01 12:33:46;;;;;;;10.95;5.50;;;22.40;1.00;;;;;;5036182;28;20174;-85
2023/10/01 12:36:32;;;;;;;;;;;;;;;;;;;;;
2023/10/01 12:41:47;;;;;;;10.25;5.68;;;23.10;1.00;;;;;;5038063;28;20256;-85
2023/10/01 12:45:13;;;;;;;9.23;5.15;;;22.90;1.00;;;;;;5036084;28;20639;-84
2023/10/01 12:47:02;;;;;;;9.52;5.68;;;22.60;1.00;;;;;;5032209;28;20792;-84
2023/10/01 12:49:32;;;;;;;8.52;5.65;;;22.40;1.00;;;;;;5035726;28;20171;-85
2023/10/01 12:52:02;;;;;;;7.72;5.10;;;22.30;1.00;;;;;;5035928;28;20182;-87
2023/10/01 12:54:27;;;;;;;11.43;6.07;;;22.20;1.00;;;;;;5036151;28;20182;-85
2023/10/01 12:57:03;;;;;;;10.38;5.43;;;22.20;1.00;;;;;;5038649;28;20170;-86
2023/10/01 12:59:39;;;;;;;8.88;5.18;;;22.20;1.00;;;;;;5037221;28;20213;-86
2023/10/01 13:02:21;;;;;;;11.00;5.82;;;22.40;1.00;;;;;;5040489;28;20197;-87
2023/10/01 13:04:50;;;;;;;10.48;5.38;;;22.60;1.00;;;;;;5040318;28;20193;-85
2023/10/01 13:07:27;;;;;;;10.85;5.80;;;22.60;1.00;;;;;;5039884;28;20587;-85
2023/10/01 13:09:53;;;;;;;9.27;5.28;;;22.70;1.00;;;;;;5041345;28;20177;-86
2023/10/01 13:12:25;;;;;;;11.07;6.30;;;22.80;1.00;;;;;;5041827;28;20193;-85
2023/10/01 13:17:43;;;;;;;8.85;5.47;;;23.20;1.00;;;;;;5041805;28;20251;-85
2023/10/01 13:20:19;;;;;;;9.25;5.40;;;23.70;1.00;;;;;;5040127;28;20182;-85
2023/10/01 13:22:52;;;;;;;9.85;6.00;;;23.60;1.00;;;;;;5041276;28;20224;-85
2023/10/01 13:25:23;;;;;;;9.98;5.93;;;23.50;1.00;;;;;;5039534;28;20197;-86
2023/10/01 13:28:01;;;;;;;9.38;5.65;;;23.70;1.00;;;;;;5041106;28;20170;-85
2023/10/01 13:30:28;;;;;;;9.82;6.20;;;24.20;1.00;;;;;;5040969;28;20197;-85
2023/10/01 13:35:50;;;;;;;10.63;6.72;;;23.30;1.00;;;;;;5041283;28;20209;-86
2023/10/01 14:11:03;;;;;;;10.07;5.82;;;23.60;1.00;;;;;;5039840;28;20197;-85
2023/10/01 14:13:29;;;;;;;12.55;6.22;;;24.00;1.00;;;;;;5037314;28;20174;-86
2023/10/01 14:16:11;;;;;;;10.60;6.65;;;24.40;1.00;;;;;;5038434;28;20213;-86
2023/10/01 14:18:40;;;;;;;10.80;6.32;;;24.20;99.90;;;;;;5040057;28;20167;-85
2023/10/01 14:21:13;;;;;;;12.70;7.07;;;24.10;99.90;;;;;;5039266;28;20193;-85
2023/10/01 14:23:45;;;;;;;11.48;6.13;;;24.40;99.90;;;;;;5037969;28;20166;-86
2023/10/01 14:26:12;;;;;;;10.00;6.30;;;24.60;99.90;;;;;;5038922;28;20210;-87
2023/10/01 14:28:39;;;;;;;12.20;7.10;;;24.60;99.90;;;;;;5038908;28;20669;-86
2023/10/01 14:31:08;;;;;;;11.27;6.90;;;24.50;99.90;;;;;;5039493;28;20589;-86
2023/10/01 14:33:39;;;;;;;11.70;7.25;;;24.50;99.90;;;;;;5038282;28;20166;-85
2023/10/01 14:36:05;;;;;;;11.23;6.82;;;24.50;99.90;;;;;;5039100;28;20277;-86
2023/10/01 14:38:37;;;;;;;12.40;7.53;;;24.50;99.90;;;;;;5039100;28;20201;-85
2023/10/01 14:41:10;;;;;;;12.40;7.65;;;24.20;99.90;;;;;;5037062;28;20189;-87